Time;durP1;ratioP1;P1;durP2;ratioP2;P2;SDS_P1;SDS_P2;PMS_P1;PMS_P2;Temp;Humidity;BMP_temperature;BMP_pressure;BME280_temperature;BME280_humidity;BME280_pressure;Samples;Min_cycle;Max_cycle;Signal;HPM_P1;HPM_P2
2023/02/13 00:01:29;;;;;;;175.57;58.17;;;;;;;;;;5021397;28;20207;-74
2023/02/13 00:03:57;;;;;;;177.98;57.92;;;;;;;;;;5020102;28;20222;-74
2023/02/13 00:06:40;;;;;;;248.25;73.80;;;;;;;;;;5021922;28;20226;-74
2023/02/13 00:09:09;;;;;;;235.68;72.20;;;;;;;;;;5018163;28;20606;-74
2023/02/13 00:11:44;;;;;;;171.93;58.75;;;;;;;;;;5021473;28;20265;-75
2023/02/13 00:14:14;;;;;;;244.57;74.68;;;;;;;;;;5021489;28;20226;-75
2023/02/13 00:16:42;;;;;;;175.10;58.72;;;;;;;;;;5022198;28;20223;-75
2023/02/13 00:19:13;;;;;;;191.40;59.38;;;;;;;;;;5017091;28;20219;-75
2023/02/13 00:21:45;;;;;;;161.35;54.78;;;;;;;;;;5021301;28;20218;-72
2023/02/13 00:24:20;;;;;;;173.55;57.78;;;;;;;;;;5021190;28;20222;-76
2023/02/13 00:26:48;;;;;;;195.48;60.63;;;;;;;;;;5022117;28;20288;-75
2023/02/13 00:29:18;;;;;;;194.93;60.35;;;;;;;;;;5021381;28;20229;-74
2023/02/13 00:31:48;;;;;;;182.23;58.40;;;;;;;;;;5020984;28;20241;-74
2023/02/13 00:34:16;;;;;;;190.80;59.75;;;;;;;;;;5020442;28;20314;-74
2023/02/13 00:36:45;;;;;;;235.38;73.28;;;;;;;;;;5022265;28;20222;-74
2023/02/13 00:39:13;;;;;;;237.00;72.80;;;;;;;;;;5019466;28;20249;-74
2023/02/13 00:41:43;;;;;;;179.18;57.95;;;;;;;;;;5020424;28;20502;-75
2023/02/13 00:44:12;;;;;;;236.82;72.65;;;;;;;;;;5002337;28;20259;-75
2023/02/13 00:46:44;;;;;;;172.68;58.03;;;;;;;;;;5001426;28;20234;-75
2023/02/13 00:49:12;;;;;;;181.05;58.38;;;;;;;;;;5001345;28;20241;-74
2023/02/13 00:51:40;;;;;;;250.73;78.88;;;;;;;;;;5000780;28;20283;-74
2023/02/13 00:54:10;;;;;;;233.95;72.15;;;;;;;;;;5001334;28;20233;-74
2023/02/13 00:56:46;;;;;;;229.82;72.38;;;;;;;;;;5009058;28;20219;-74
2023/02/13 00:59:16;;;;;;;238.77;73.18;;;;;;;;;;5019843;28;20625;-74
2023/02/13 01:01:44;;;;;;;242.20;74.80;;;;;;;;;;5018248;28;20250;-76
2023/02/13 01:04:34;;;;;;;199.13;61.95;;;;;;;;;;5020185;28;20538;-74
2023/02/13 01:07:04;;;;;;;239.07;75.00;;;;;;;;;;5001142;28;20627;-74
2023/02/13 01:09:33;;;;;;;191.27;60.45;;;;;;;;;;5004464;28;20669;-74
2023/02/13 01:12:01;;;;;;;173.52;56.67;;;;;;;;;;5020496;28;20242;-75
2023/02/13 01:14:35;;;;;;;241.55;74.80;;;;;;;;;;5009236;28;20222;-75
2023/02/13 01:17:02;;;;;;;172.15;54.33;;;;;;;;;;5002159;28;20230;-76
2023/02/13 01:19:30;;;;;;;192.95;61.47;;;;;;;;;;5017097;28;20309;-75
2023/02/13 01:21:58;;;;;;;197.88;58.92;;;;;;;;;;5020306;28;20538;-73
2023/02/13 01:24:28;;;;;;;197.18;59.85;;;;;;;;;;5020058;28;20248;-73
2023/02/13 01:27:11;;;;;;;190.55;60.05;;;;;;;;;;5013175;28;20558;-74
2023/02/13 01:29:39;;;;;;;214.10;69.18;;;;;;;;;;5006510;28;20527;-74
2023/02/13 01:32:07;;;;;;;236.15;73.32;;;;;;;;;;5019084;28;20693;-76
2023/02/13 01:34:36;;;;;;;192.20;59.78;;;;;;;;;;5019935;28;20223;-75
2023/02/13 01:37:05;;;;;;;170.55;56.67;;;;;;;;;;5019995;28;20667;-75
2023/02/13 01:39:35;;;;;;;234.55;72.65;;;;;;;;;;5019665;28;20226;-75
2023/02/13 01:42:09;;;;;;;160.90;57.17;;;;;;;;;;5015088;28;20310;-75
2023/02/13 01:44:55;;;;;;;243.23;78.28;;;;;;;;;;5018399;28;20317;-75
2023/02/13 01:47:28;;;;;;;181.32;57.03;;;;;;;;;;5019851;28;20253;-75
2023/02/13 01:50:06;;;;;;;239.23;73.18;;;;;;;;;;5018900;28;20236;-74
2023/02/13 01:52:34;;;;;;;172.38;55.83;;;;;;;;;;5017911;28;20238;-76
2023/02/13 01:55:02;;;;;;;236.38;72.22;;;;;;;;;;5012625;28;20226;-76
2023/02/13 01:57:32;;;;;;;199.98;62.22;;;;;;;;;;5019486;28;20284;-74
2023/02/13 02:00:02;;;;;;;198.57;62.90;;;;;;;;;;5017950;28;20222;-75
2023/02/13 02:02:32;;;;;;;237.73;72.22;;;;;;;;;;5019241;28;20584;-75
2023/02/13 02:04:59;;;;;;;241.38;74.88;;;;;;;;;;4999328;28;20243;-76
2023/02/13 02:07:28;;;;;;;177.57;56.58;;;;;;;;;;4999298;28;20223;-75
2023/02/13 02:09:57;;;;;;;194.82;59.78;;;;;;;;;;5011149;28;20510;-74
2023/02/13 02:12:27;;;;;;;172.75;56.80;;;;;;;;;;5005549;28;20242;-73
2023/02/13 02:14:57;;;;;;;232.88;71.25;;;;;;;;;;4999525;28;20215;-75
2023/02/13 02:17:25;;;;;;;240.00;75.85;;;;;;;;;;4999021;28;20219;-75
2023/02/13 02:19:59;;;;;;;191.30;59.50;;;;;;;;;;4999141;28;20231;-74
2023/02/13 02:22:42;;;;;;;172.75;58.40;;;;;;;;;;5018038;28;20218;-75
2023/02/13 02:25:27;;;;;;;191.52;58.45;;;;;;;;;;5007611;28;20218;-74
2023/02/13 02:28:12;;;;;;;198.68;60.38;;;;;;;;;;5012983;28;20229;-74
2023/02/13 02:30:52;;;;;;;190.65;60.33;;;;;;;;;;5018315;28;20318;-74
2023/02/13 02:33:29;;;;;;;168.35;56.00;;;;;;;;;;5018224;28;20242;-74
2023/02/13 02:36:03;;;;;;;227.45;70.07;;;;;;;;;;5017841;28;20222;-75
2023/02/13 02:38:41;;;;;;;174.23;56.20;;;;;;;;;;5018355;28;20222;-74
2023/02/13 02:41:11;;;;;;;234.95;71.07;;;;;;;;;;5017993;28;20309;-74
2023/02/13 02:43:46;;;;;;;171.15;56.80;;;;;;;;;;5002739;28;20230;-75
2023/02/13 02:46:17;;;;;;;235.57;73.95;;;;;;;;;;5012336;28;20224;-74
2023/02/13 02:51:40;;;;;;;189.40;59.13;;;;;;;;;;5017801;28;20283;-74
2023/02/13 02:56:54;;;;;;;226.13;70.40;;;;;;;;;;5012266;28;20229;-75
2023/02/13 03:07:46;;;;;;;170.68;56.85;;;;;;;;;;4998388;28;20214;-74
2023/02/13 03:13:24;;;;;;;169.55;55.80;;;;;;;;;;5007679;28;20241;-75
2023/02/13 03:24:34;;;;;;;234.68;72.57;;;;;;;;;;5002095;28;20227;-75
2023/02/13 03:27:06;;;;;;;196.23;59.50;;;;;;;;;;5016238;28;20226;-75
2023/02/13 03:32:30;;;;;;;200.25;58.22;;;;;;;;;;5016717;28;20245;-74
2023/02/13 03:37:57;;;;;;;231.52;71.32;;;;;;;;;;5017124;28;20345;-74
2023/02/13 03:40:29;;;;;;;170.05;56.08;;;;;;;;;;5017204;28;20222;-74
2023/02/13 03:43:02;;;;;;;190.88;58.08;;;;;;;;;;5017562;28;20218;-76
2023/02/13 03:51:16;;;;;;;229.38;70.18;;;;;;;;;;5017001;28;20221;-75
2023/02/13 03:53:47;;;;;;;185.32;57.97;;;;;;;;;;5017576;28;20332;-75
2023/02/13 03:59:16;;;;;;;168.88;55.78;;;;;;;;;;5017104;28;20242;-74
2023/02/13 04:01:46;;;;;;;190.13;58.95;;;;;;;;;;5017631;28;20266;-75
2023/02/13 04:04:18;;;;;;;230.68;72.15;;;;;;;;;;5017327;28;20222;-74
2023/02/13 04:06:49;;;;;;;227.70;69.18;;;;;;;;;;5016189;28;20237;-74
2023/02/13 04:09:19;;;;;;;233.77;70.25;;;;;;;;;;5005500;28;20592;-74
2023/02/13 04:11:50;;;;;;;169.55;56.55;;;;;;;;;;4997376;28;20229;-74
2023/02/13 04:14:21;;;;;;;173.52;58.50;;;;;;;;;;5005417;28;20220;-75
2023/02/13 04:17:07;;;;;;;170.73;57.88;;;;;;;;;;5010466;28;20231;-74
2023/02/13 04:19:43;;;;;;;166.13;54.50;;;;;;;;;;5004913;28;20312;-74
2023/02/13 04:22:15;;;;;;;170.35;57.92;;;;;;;;;;4998611;28;20219;-74
2023/02/13 04:24:54;;;;;;;190.93;58.80;;;;;;;;;;5006757;28;20445;-75
2023/02/13 04:27:24;;;;;;;227.55;75.43;;;;;;;;;;5002922;28;20223;-74
2023/02/13 04:29:52;;;;;;;167.05;56.05;;;;;;;;;;5013072;28;20277;-75
2023/02/13 04:32:22;;;;;;;186.07;57.92;;;;;;;;;;5015669;28;20618;-74
2023/02/13 04:34:49;;;;;;;227.75;73.70;;;;;;;;;;5017440;28;20257;-75
2023/02/13 04:37:17;;;;;;;227.23;71.88;;;;;;;;;;5019992;28;20595;-73
2023/02/13 04:39:47;;;;;;;189.40;59.60;;;;;;;;;;5020409;28;20249;-75
2023/02/13 04:42:14;;;;;;;187.57;58.95;;;;;;;;;;5020001;28;20317;-76
2023/02/13 04:44:42;;;;;;;166.50;55.97;;;;;;;;;;5020209;28;20579;-75
2023/02/13 04:47:09;;;;;;;227.25;73.93;;;;;;;;;;5020336;28;20222;-75
2023/02/13 04:49:37;;;;;;;173.38;59.33;;;;;;;;;;5019346;28;20622;-75
2023/02/13 04:52:04;;;;;;;189.82;59.10;;;;;;;;;;5020414;28;20249;-75
2023/02/13 04:54:32;;;;;;;191.55;59.47;;;;;;;;;;5020196;28;20612;-75
2023/02/13 04:57:01;;;;;;;169.93;56.22;;;;;;;;;;5020358;28;20682;-74
2023/02/13 04:59:29;;;;;;;232.77;72.72;;;;;;;;;;5020453;28;20218;-76
2023/02/13 05:01:58;;;;;;;230.77;71.35;;;;;;;;;;5020156;28;20317;-75
2023/02/13 05:04:26;;;;;;;231.52;71.65;;;;;;;;;;5019605;28;20225;-75
2023/02/13 05:06:53;;;;;;;163.82;50.90;;;;;;;;;;5007341;28;20554;-75
2023/02/13 05:09:21;;;;;;;234.48;71.40;;;;;;;;;;5019220;28;20214;-73
2023/02/13 05:11:51;;;;;;;190.95;58.88;;;;;;;;;;5019626;28;20214;-75
2023/02/13 05:14:20;;;;;;;238.15;71.95;;;;;;;;;;5019881;28;20233;-75
2023/02/13 05:16:49;;;;;;;233.27;72.40;;;;;;;;;;5009745;28;20227;-75
2023/02/13 05:19:16;;;;;;;161.35;53.70;;;;;;;;;;5018749;28;20254;-75
2023/02/13 05:24:29;;;;;;;227.55;70.97;;;;;;;;;;5018974;28;20217;-75
2023/02/13 05:26:57;;;;;;;170.27;57.15;;;;;;;;;;5018835;28;20603;-75
2023/02/13 05:29:26;;;;;;;235.68;70.90;;;;;;;;;;5019370;28;20586;-74
2023/02/13 05:31:54;;;;;;;189.20;57.97;;;;;;;;;;5018819;28;20580;-74
2023/02/13 05:34:22;;;;;;;193.43;60.15;;;;;;;;;;5019191;28;20650;-74
2023/02/13 05:36:50;;;;;;;168.68;56.42;;;;;;;;;;5018774;28;20234;-74
2023/02/13 05:39:18;;;;;;;233.73;70.88;;;;;;;;;;5017075;28;20262;-75
2023/02/13 05:41:46;;;;;;;190.25;58.90;;;;;;;;;;5018690;28;20230;-75
2023/02/13 05:44:14;;;;;;;230.05;72.45;;;;;;;;;;5019180;28;20229;-76
2023/02/13 05:46:44;;;;;;;230.77;71.05;;;;;;;;;;5017588;28;20222;-74
2023/02/13 05:49:13;;;;;;;193.43;59.25;;;;;;;;;;5018898;28;20284;-75
2023/02/13 05:51:41;;;;;;;228.35;70.03;;;;;;;;;;5019312;28;20233;-74
2023/02/13 05:54:08;;;;;;;171.10;56.92;;;;;;;;;;5018357;28;20251;-73
2023/02/13 05:56:42;;;;;;;189.98;60.85;;;;;;;;;;5018348;28;20716;-75
2023/02/13 05:59:10;;;;;;;167.27;55.92;;;;;;;;;;5015698;28;20214;-74
2023/02/13 06:01:37;;;;;;;235.15;71.75;;;;;;;;;;5002089;28;20246;-74
2023/02/13 06:04:09;;;;;;;233.20;71.85;;;;;;;;;;5017447;28;20222;-74
2023/02/13 06:06:39;;;;;;;187.45;59.30;;;;;;;;;;5017327;28;20646;-74
2023/02/13 06:09:07;;;;;;;228.57;71.15;;;;;;;;;;5017523;28;20218;-74
2023/02/13 06:11:36;;;;;;;188.05;59.10;;;;;;;;;;5016579;28;20219;-75
2023/02/13 06:14:06;;;;;;;192.07;61.78;;;;;;;;;;5016678;28;20300;-74
2023/02/13 06:16:34;;;;;;;191.63;60.58;;;;;;;;;;5017074;28;20226;-74
2023/02/13 06:19:01;;;;;;;232.10;72.20;;;;;;;;;;5016134;28;20218;-75
2023/02/13 06:21:32;;;;;;;228.02;74.15;;;;;;;;;;5016054;28;20285;-76
2023/02/13 06:23:59;;;;;;;169.43;57.17;;;;;;;;;;5015479;28;20211;-74
2023/02/13 06:26:27;;;;;;;170.05;52.92;;;;;;;;;;5015888;28;20233;-74
2023/02/13 06:28:55;;;;;;;189.50;59.33;;;;;;;;;;4997916;28;20551;-74
2023/02/13 06:31:26;;;;;;;167.10;56.00;;;;;;;;;;4996495;28;20218;-73
2023/02/13 06:33:54;;;;;;;234.32;73.35;;;;;;;;;;4995115;28;20252;-75
2023/02/13 06:36:22;;;;;;;195.73;59.85;;;;;;;;;;5014589;28;20210;-75
2023/02/13 06:39:01;;;;;;;168.80;56.35;;;;;;;;;;5015602;28;20219;-74
2023/02/13 06:41:29;;;;;;;227.38;72.05;;;;;;;;;;5012268;28;20223;-75
2023/02/13 06:43:57;;;;;;;199.43;64.00;;;;;;;;;;4994895;28;20247;-74
2023/02/13 06:46:28;;;;;;;227.13;71.50;;;;;;;;;;5015195;28;20240;-73
2023/02/13 06:48:56;;;;;;;194.15;61.30;;;;;;;;;;5035787;28;20221;-74
2023/02/13 06:51:23;;;;;;;190.82;62.25;;;;;;;;;;5035667;28;20228;-75
2023/02/13 06:54:02;;;;;;;188.80;60.53;;;;;;;;;;5002005;28;20239;-75
2023/02/13 06:56:35;;;;;;;234.38;72.53;;;;;;;;;;5008138;28;20305;-74
2023/02/13 06:59:07;;;;;;;180.85;57.85;;;;;;;;;;5013930;28;20619;-73
2023/02/13 07:01:35;;;;;;;217.90;69.45;;;;;;;;;;5001011;28;20219;-74
2023/02/13 07:04:02;;;;;;;189.00;59.78;;;;;;;;;;5007075;28;20607;-74
2023/02/13 07:09:34;;;;;;;168.02;58.95;;;;;;;;;;5000247;28;20230;-75
2023/02/13 07:12:19;;;;;;;177.73;57.38;;;;;;;;;;5011657;28;20215;-77
2023/02/13 07:14:59;;;;;;;230.20;73.85;;;;;;;;;;5013001;28;20239;-77
2023/02/13 07:17:30;;;;;;;232.50;73.35;;;;;;;;;;5016875;28;20246;-77
2023/02/13 07:20:03;;;;;;;167.55;57.67;;;;;;;;;;5016239;28;20277;-75
2023/02/13 07:22:56;;;;;;;228.20;73.28;;;;;;;;;;5009906;28;20673;-77
2023/02/13 07:29:04;;;;;;;185.10;59.47;;;;;;;;;;4997345;28;20222;-76
2023/02/13 07:31:40;;;;;;;186.05;58.70;;;;;;;;;;5004636;28;20214;-76
2023/02/13 07:34:09;;;;;;;186.85;59.60;;;;;;;;;;5012407;28;20348;-77
2023/02/13 07:36:49;;;;;;;182.20;59.35;;;;;;;;;;5010597;28;20243;-77
2023/02/13 07:48:37;;;;;;;225.20;72.18;;;;;;;;;;5002316;28;20214;-76
2023/02/13 07:51:17;;;;;;;228.07;72.25;;;;;;;;;;5011394;28;20226;-78
2023/02/13 07:53:50;;;;;;;179.35;57.97;;;;;;;;;;5015234;28;20270;-75
2023/02/13 07:56:33;;;;;;;189.15;64.53;;;;;;;;;;5010322;28;20359;-75
2023/02/13 08:05:26;;;;;;;170.70;59.40;;;;;;;;;;5008202;28;20222;-76
2023/02/13 08:08:17;;;;;;;234.75;75.85;;;;;;;;;;5013602;28;20690;-74
2023/02/13 08:13:46;;;;;;;238.80;75.82;;;;;;;;;;5018574;28;20253;-77
2023/02/13 08:16:21;;;;;;;187.65;59.90;;;;;;;;;;5013756;28;20219;-76
2023/02/13 08:19:12;;;;;;;235.63;74.35;;;;;;;;;;5014197;28;20229;-76
2023/02/13 08:21:44;;;;;;;231.70;75.93;;;;;;;;;;4998665;28;20223;-75
2023/02/13 08:24:23;;;;;;;235.02;74.80;;;;;;;;;;5008631;28;20223;-76
2023/02/13 08:27:31;;;;;;;187.88;60.92;;;;;;;;;;5016950;28;20219;-75
2023/02/13 08:30:29;;;;;;;191.00;61.65;;;;;;;;;;5018275;28;20225;-76
2023/02/13 08:33:25;;;;;;;172.45;61.25;;;;;;;;;;5012547;28;20222;-76
2023/02/13 08:35:53;;;;;;;235.63;79.57;;;;;;;;;;5021714;28;20712;-76
2023/02/13 08:38:28;;;;;;;229.73;74.43;;;;;;;;;;5004790;28;20238;-76
2023/02/13 08:41:01;;;;;;;179.00;63.10;;;;;;;;;;5016974;28;20245;-76
2023/02/13 08:43:31;;;;;;;239.88;76.72;;;;;;;;;;5017986;28;20236;-76
2023/02/13 08:48:47;;;;;;;233.48;77.22;;;;;;;;;;5008826;28;20214;-78
2023/02/13 08:51:41;;;;;;;168.05;61.45;;;;;;;;;;5007057;28;20663;-76
2023/02/13 08:54:16;;;;;;;195.23;65.15;;;;;;;;;;5006474;28;20242;-76
2023/02/13 09:05:54;;;;;;;242.50;78.47;;;;;;;;;;5008266;28;20223;-76
2023/02/13 09:32:06;;;;;;;202.48;67.65;;;;;;;;;;4931448;29;20308;-76
2023/02/13 09:38:51;;;;;;;;;;;;;;;;;;;;;
2023/02/13 09:41:50;;;;;;;244.00;77.22;;;;;;;;;;4953565;28;21168;-76
2023/02/13 09:47:55;;;;;;;;;;;;;;;;;;;;;
2023/02/13 09:58:57;;;;;;;250.73;79.90;;;;;;;;;;5011909;28;20225;-76
2023/02/13 10:04:55;;;;;;;197.63;64.45;;;;;;;;;;4987695;28;20653;-75
2023/02/13 10:07:29;;;;;;;241.85;77.95;;;;;;;;;;5013591;28;20701;-76
2023/02/13 10:10:39;;;;;;;202.95;64.15;;;;;;;;;;5012520;28;20229;-78
2023/02/13 10:13:22;;;;;;;250.85;83.25;;;;;;;;;;5007039;28;20225;-75
2023/02/13 10:16:15;;;;;;;245.35;78.63;;;;;;;;;;5015970;28;20226;-75
2023/02/13 10:21:38;;;;;;;245.00;76.32;;;;;;;;;;4998761;28;20215;-76
2023/02/13 10:24:13;;;;;;;200.32;65.28;;;;;;;;;;5013279;28;20510;-75
2023/02/13 10:26:56;;;;;;;200.55;64.68;;;;;;;;;;5016897;28;20222;-77
2023/02/13 10:44:57;;;;;;;242.00;79.65;;;;;;;;;;5001433;28;20622;-74
2023/02/13 10:47:39;;;;;;;190.50;61.20;;;;;;;;;;5016171;28;20509;-75
2023/02/13 10:50:38;;;;;;;184.43;68.15;;;;;;;;;;5008479;28;20228;-76
2023/02/13 10:53:14;;;;;;;171.55;61.63;;;;;;;;;;5009386;28;20610;-75
2023/02/13 10:55:58;;;;;;;197.07;65.63;;;;;;;;;;4994546;28;20296;-75
2023/02/13 11:04:46;;;;;;;201.55;66.55;;;;;;;;;;5017110;28;20201;-74
2023/02/13 11:12:50;;;;;;;238.85;77.60;;;;;;;;;;5004696;28;20248;-75
2023/02/13 11:15:57;;;;;;;;;;;;;;;;;;;;;
2023/02/13 11:18:51;;;;;;;206.10;66.82;;;;;;;;;;4995324;28;20226;-74
2023/02/13 11:21:39;;;;;;;208.52;69.10;;;;;;;;;;5002948;28;20848;-75
2023/02/13 11:24:18;;;;;;;208.30;67.88;;;;;;;;;;5005668;28;20222;-75
2023/02/13 11:29:41;;;;;;;255.68;81.60;;;;;;;;;;5014167;28;20669;-75
2023/02/13 11:35:47;;;;;;;259.30;85.75;;;;;;;;;;5014403;28;20245;-76
2023/02/13 11:41:52;;;;;;;202.60;65.22;;;;;;;;;;4955129;29;20209;-77
2023/02/13 11:44:43;;;;;;;251.23;79.18;;;;;;;;;;4978119;28;20671;-75
2023/02/13 11:47:34;;;;;;;199.55;65.07;;;;;;;;;;5012536;28;20773;-75
2023/02/13 11:50:05;;;;;;;176.80;62.72;;;;;;;;;;4998489;28;20832;-74
2023/02/13 11:53:10;;;;;;;253.73;81.82;;;;;;;;;;5005008;28;20230;-75
2023/02/13 11:59:28;;;;;;;181.45;63.05;;;;;;;;;;5003215;28;20234;-75
2023/02/13 12:02:17;;;;;;;256.20;82.80;;;;;;;;;;4902167;29;20322;-76
2023/02/13 12:04:49;;;;;;;206.70;63.13;;;;;;;;;;4999253;28;20219;-75
2023/02/13 12:07:22;;;;;;;204.95;65.20;;;;;;;;;;5015246;28;20227;-75
2023/02/13 12:10:23;;;;;;;201.25;62.22;;;;;;;;;;5002902;28;20227;-76
2023/02/13 12:15:44;;;;;;;185.98;61.67;;;;;;;;;;5005748;28;20329;-73
2023/02/13 12:18:20;;;;;;;186.27;64.43;;;;;;;;;;5013028;28;20229;-74
2023/02/13 12:20:55;;;;;;;249.85;78.25;;;;;;;;;;5008497;28;20254;-75
2023/02/13 12:23:30;;;;;;;182.98;62.58;;;;;;;;;;5014360;28;20218;-74
2023/02/13 12:26:11;;;;;;;251.48;78.45;;;;;;;;;;5013708;28;20233;-74
2023/02/13 12:28:54;;;;;;;178.60;60.50;;;;;;;;;;5012721;28;20585;-75
2023/02/13 12:31:34;;;;;;;203.32;65.50;;;;;;;;;;5013758;28;20302;-74
2023/02/13 12:34:17;;;;;;;249.68;79.72;;;;;;;;;;5012833;28;20281;-75
2023/02/13 12:37:06;;;;;;;181.68;60.28;;;;;;;;;;5002852;28;20238;-73
2023/02/13 12:39:47;;;;;;;251.23;79.45;;;;;;;;;;5014068;28;20231;-76
2023/02/13 12:54:57;;;;;;;250.25;77.93;;;;;;;;;;5000645;28;20238;-76
2023/02/13 13:01:19;;;;;;;;;;;;;;;;;;;;;
2023/02/13 13:04:08;;;;;;;182.35;62.70;;;;;;;;;;4930680;29;20826;-75
2023/02/13 13:07:13;;;;;;;252.32;84.57;;;;;;;;;;4938394;28;20368;-75
2023/02/13 13:28:37;;;;;;;;;;;;;;;;;;;;;
2023/02/13 13:38:01;;;;;;;252.82;76.10;;;;;;;;;;4923783;28;20270;-76
2023/02/13 13:40:49;;;;;;;254.55;83.18;;;;;;;;;;4985878;28;20267;-76
2023/02/13 13:43:32;;;;;;;250.13;77.93;;;;;;;;;;5002065;28;20246;-75
2023/02/13 13:46:17;;;;;;;260.20;80.40;;;;;;;;;;5003397;28;20227;-75
2023/02/13 13:52:10;;;;;;;183.68;63.28;;;;;;;;;;5001383;28;20219;-75
2023/02/13 14:04:25;;;;;;;205.18;64.40;;;;;;;;;;5011303;28;20193;-75
2023/02/13 14:07:11;;;;;;;248.05;77.13;;;;;;;;;;5005261;28;20218;-75
2023/02/13 14:09:58;;;;;;;202.48;66.70;;;;;;;;;;5002274;28;20235;-73
2023/02/13 14:16:10;;;;;;;206.73;67.90;;;;;;;;;;4998337;28;20658;-73
2023/02/13 14:18:46;;;;;;;250.27;80.93;;;;;;;;;;4993892;28;20223;-73
2023/02/13 14:21:40;;;;;;;209.27;66.22;;;;;;;;;;5003583;28;20233;-73
2023/02/13 14:24:18;;;;;;;252.57;81.97;;;;;;;;;;4995285;28;20225;-72
2023/02/13 14:26:54;;;;;;;251.25;80.97;;;;;;;;;;5000993;28;20218;-72
2023/02/13 14:29:29;;;;;;;253.32;82.53;;;;;;;;;;5007510;28;20215;-74
2023/02/13 14:32:11;;;;;;;248.80;80.82;;;;;;;;;;5016590;28;20210;-73
2023/02/13 14:41:52;;;;;;;;;;;;;;;;;;;;;
2023/02/13 14:50:33;;;;;;;201.45;64.68;;;;;;;;;;5074624;28;20559;-75
2023/02/13 14:53:23;;;;;;;192.13;64.35;;;;;;;;;;5071923;28;20213;-75
2023/02/13 14:55:55;;;;;;;249.50;79.35;;;;;;;;;;5079110;28;20952;-74
2023/02/13 14:58:36;;;;;;;207.13;68.25;;;;;;;;;;5080619;28;20208;-74
2023/02/13 15:01:28;;;;;;;256.75;85.15;;;;;;;;;;5079010;28;20220;-72
2023/02/13 15:04:00;;;;;;;251.48;79.85;;;;;;;;;;5080553;28;20207;-73
2023/02/13 15:06:43;;;;;;;184.32;66.75;;;;;;;;;;5072946;28;20497;-73
2023/02/13 15:09:31;;;;;;;204.68;65.80;;;;;;;;;;5081533;28;20213;-73
2023/02/13 15:11:59;;;;;;;216.55;74.18;;;;;;;;;;5080362;28;20232;-74
2023/02/13 15:14:43;;;;;;;261.17;84.10;;;;;;;;;;5077672;28;20244;-76
2023/02/13 15:20:34;;;;;;;261.75;85.53;;;;;;;;;;5018087;28;20250;-75
2023/02/13 15:23:19;;;;;;;207.57;67.00;;;;;;;;;;5058622;28;20299;-75
2023/02/13 15:25:48;;;;;;;248.88;80.22;;;;;;;;;;5089064;28;20211;-77
2023/02/13 15:28:27;;;;;;;250.88;87.55;;;;;;;;;;5086776;28;20565;-77
2023/02/13 15:46:02;;;;;;;;;;;;;;;;;;;;;
2023/02/13 15:48:57;;;;;;;203.95;67.35;;;;;;;;;;5083419;28;20200;-76
2023/02/13 15:57:44;;;;;;;250.18;77.25;;;;;;;;;;5013515;28;20245;-74
2023/02/13 16:00:50;;;;;;;243.13;81.25;;;;;;;;;;5067195;28;20344;-74
2023/02/13 16:03:27;;;;;;;187.90;63.65;;;;;;;;;;5058230;28;20211;-73
2023/02/13 16:06:02;;;;;;;243.48;76.15;;;;;;;;;;5076223;28;20581;-73
2023/02/13 16:08:34;;;;;;;251.95;82.88;;;;;;;;;;5075340;28;20569;-74
2023/02/13 16:11:24;;;;;;;252.65;80.93;;;;;;;;;;5072022;28;20477;-74
2023/02/13 16:14:19;;;;;;;245.95;79.28;;;;;;;;;;5073323;28;20216;-73
2023/02/13 16:16:51;;;;;;;185.23;64.80;;;;;;;;;;5065846;28;20501;-73
2023/02/13 16:19:28;;;;;;;189.07;67.82;;;;;;;;;;5066495;28;20589;-73
2023/02/13 16:21:57;;;;;;;244.70;80.05;;;;;;;;;;5062743;28;20212;-72
2023/02/13 16:24:31;;;;;;;202.98;66.97;;;;;;;;;;5061098;28;20442;-75
2023/02/13 16:26:59;;;;;;;183.82;65.78;;;;;;;;;;5068047;28;20534;-74
2023/02/13 16:29:50;;;;;;;253.55;82.68;;;;;;;;;;5065665;28;20209;-74
2023/02/13 16:32:24;;;;;;;206.38;69.55;;;;;;;;;;5064704;28;20694;-73
2023/02/13 16:34:52;;;;;;;200.65;65.32;;;;;;;;;;5076133;28;20227;-75
2023/02/13 16:37:45;;;;;;;252.75;81.07;;;;;;;;;;5074986;28;20241;-75
2023/02/13 16:40:40;;;;;;;237.80;75.50;;;;;;;;;;5055888;28;20637;-74
2023/02/13 16:46:28;;;;;;;209.80;69.45;;;;;;;;;;5068240;28;20520;-74
2023/02/13 16:49:07;;;;;;;250.48;78.38;;;;;;;;;;5071216;28;20456;-75
2023/02/13 16:51:37;;;;;;;198.07;67.82;;;;;;;;;;5076667;28;20516;-74
2023/02/13 16:54:06;;;;;;;257.70;81.00;;;;;;;;;;5079589;28;20687;-74
2023/02/13 16:56:41;;;;;;;249.80;80.82;;;;;;;;;;5083732;28;20215;-75
2023/02/13 16:59:32;;;;;;;260.58;77.85;;;;;;;;;;5095374;28;20265;-74
2023/02/13 17:02:17;;;;;;;244.32;78.90;;;;;;;;;;5072909;28;20221;-75
2023/02/13 17:04:46;;;;;;;251.25;83.00;;;;;;;;;;5078269;28;20663;-74
2023/02/13 17:07:14;;;;;;;256.02;85.82;;;;;;;;;;5076571;28;20221;-74
2023/02/13 17:09:47;;;;;;;274.98;83.90;;;;;;;;;;5079259;28;20212;-73
2023/02/13 17:12:17;;;;;;;185.18;63.72;;;;;;;;;;5098806;28;20227;-73
2023/02/13 17:14:47;;;;;;;181.52;61.72;;;;;;;;;;5086288;28;20231;-73
2023/02/13 17:17:24;;;;;;;192.82;61.20;;;;;;;;;;5076049;28;20216;-75
2023/02/13 17:19:54;;;;;;;202.15;66.60;;;;;;;;;;5068645;28;20332;-74
2023/02/13 17:22:29;;;;;;;250.32;80.60;;;;;;;;;;5071902;28;20580;-74
2023/02/13 17:25:14;;;;;;;257.75;81.03;;;;;;;;;;5074820;28;20311;-74
2023/02/13 17:27:51;;;;;;;267.35;82.65;;;;;;;;;;5071281;28;20391;-73
2023/02/13 17:30:21;;;;;;;246.65;81.30;;;;;;;;;;5075448;28;20223;-75
2023/02/13 17:33:07;;;;;;;201.73;62.97;;;;;;;;;;5076421;28;20213;-75
2023/02/13 17:35:45;;;;;;;258.15;81.38;;;;;;;;;;5075555;28;20224;-76
2023/02/13 17:38:13;;;;;;;176.75;61.67;;;;;;;;;;5079752;28;20219;-73
2023/02/13 17:40:42;;;;;;;243.18;79.22;;;;;;;;;;5085015;28;20228;-75
2023/02/13 17:43:16;;;;;;;194.65;61.83;;;;;;;;;;5071385;28;20213;-76
2023/02/13 17:45:49;;;;;;;251.30;79.00;;;;;;;;;;5055917;28;20221;-75
2023/02/13 17:48:22;;;;;;;201.63;63.80;;;;;;;;;;5055383;28;20599;-75
2023/02/13 17:50:52;;;;;;;173.60;62.85;;;;;;;;;;5070275;28;20216;-75
2023/02/13 17:53:24;;;;;;;206.57;65.25;;;;;;;;;;5075695;28;20216;-73
2023/02/13 17:55:52;;;;;;;203.88;65.75;;;;;;;;;;5076386;28;20729;-75
2023/02/13 17:58:22;;;;;;;206.30;67.38;;;;;;;;;;5075426;28;20217;-74
2023/02/13 18:00:51;;;;;;;205.63;67.25;;;;;;;;;;5076309;28;20351;-73
2023/02/13 18:03:21;;;;;;;186.55;66.57;;;;;;;;;;5070039;28;20263;-75
2023/02/13 18:05:55;;;;;;;195.45;65.43;;;;;;;;;;5075328;28;20635;-73
2023/02/13 18:08:27;;;;;;;184.63;62.80;;;;;;;;;;5056907;28;20216;-75
2023/02/13 18:11:03;;;;;;;185.68;63.95;;;;;;;;;;5055385;28;20575;-73
2023/02/13 18:13:46;;;;;;;196.80;63.45;;;;;;;;;;5054847;28;20221;-75
2023/02/13 18:16:31;;;;;;;204.48;65.70;;;;;;;;;;5055889;28;20210;-76
2023/02/13 18:19:04;;;;;;;211.40;66.80;;;;;;;;;;5055636;28;20209;-74
2023/02/13 18:21:48;;;;;;;171.10;60.80;;;;;;;;;;5059799;28;20580;-74
2023/02/13 18:24:16;;;;;;;249.45;82.60;;;;;;;;;;5066752;28;20419;-75
2023/02/13 18:26:48;;;;;;;242.98;79.05;;;;;;;;;;5088324;28;20253;-73
2023/02/13 18:29:19;;;;;;;182.80;62.22;;;;;;;;;;5088161;28;20283;-75
2023/02/13 18:31:53;;;;;;;253.65;79.55;;;;;;;;;;5075015;28;20670;-73
2023/02/13 18:34:45;;;;;;;205.70;66.60;;;;;;;;;;5067772;28;20647;-75
2023/02/13 18:37:16;;;;;;;250.57;80.15;;;;;;;;;;5049739;28;20212;-74
2023/02/13 18:39:47;;;;;;;247.70;82.70;;;;;;;;;;5074614;28;20677;-74
2023/02/13 18:42:18;;;;;;;179.23;61.78;;;;;;;;;;5055723;28;20272;-74
2023/02/13 18:44:50;;;;;;;240.80;78.03;;;;;;;;;;5055511;28;20489;-74
2023/02/13 18:47:18;;;;;;;205.93;63.95;;;;;;;;;;5055968;28;20699;-74
2023/02/13 18:49:46;;;;;;;204.98;64.57;;;;;;;;;;5055910;28;20217;-75
2023/02/13 18:52:26;;;;;;;181.27;62.92;;;;;;;;;;5058224;28;20223;-75
2023/02/13 18:54:56;;;;;;;249.43;80.80;;;;;;;;;;5055304;28;20244;-75
2023/02/13 18:57:44;;;;;;;255.15;80.90;;;;;;;;;;5056414;28;20290;-74
2023/02/13 19:00:15;;;;;;;206.02;66.20;;;;;;;;;;5054918;28;20531;-75
2023/02/13 19:02:45;;;;;;;260.42;82.10;;;;;;;;;;5069054;28;20555;-74
2023/02/13 19:05:13;;;;;;;202.00;65.53;;;;;;;;;;5074257;28;20255;-74
2023/02/13 19:07:52;;;;;;;204.75;66.75;;;;;;;;;;5071940;28;20217;-74
2023/02/13 19:10:50;;;;;;;185.70;65.93;;;;;;;;;;5076288;28;20252;-74
2023/02/13 19:13:21;;;;;;;203.63;66.20;;;;;;;;;;5052837;28;20213;-74
2023/02/13 19:15:49;;;;;;;187.35;66.85;;;;;;;;;;5063907;28;20232;-75
2023/02/13 19:18:37;;;;;;;247.23;79.50;;;;;;;;;;5069393;28;20726;-74
2023/02/13 19:21:09;;;;;;;259.60;83.15;;;;;;;;;;5075553;28;20260;-74
2023/02/13 19:23:48;;;;;;;256.83;81.97;;;;;;;;;;5066323;28;20248;-75
2023/02/13 19:26:17;;;;;;;190.68;61.72;;;;;;;;;;5075126;28;20315;-74